sensor_id;sensor_type;location;lat;lon;timestamp;P1;durP1;ratioP1;P2;durP2;ratioP2
55076;SDS011;40971;44.702;11.030;2022-10-17T00:00:39;45.63;;;20.83;;
55076;SDS011;40971;44.702;11.030;2022-10-17T00:03:05;39.05;;;18.48;;
55076;SDS011;40971;44.702;11.030;2022-10-17T00:05:30;34.70;;;18.75;;
55076;SDS011;40971;44.702;11.030;2022-10-17T00:07:56;41.00;;;18.92;;
55076;SDS011;40971;44.702;11.030;2022-10-17T00:10:22;34.95;;;19.13;;
55076;SDS011;40971;44.702;11.030;2022-10-17T00:12:49;37.88;;;19.13;;
55076;SDS011;40971;44.702;11.030;2022-10-17T00:15:16;36.78;;;19.67;;
55076;SDS011;40971;44.702;11.030;2022-10-17T00:17:43;32.40;;;17.40;;
55076;SDS011;40971;44.702;11.030;2022-10-17T00:20:09;36.83;;;18.77;;
55076;SDS011;40971;44.702;11.030;2022-10-17T00:22:35;35.72;;;18.42;;
55076;SDS011;40971;44.702;11.030;2022-10-17T00:25:01;35.08;;;18.60;;
55076;SDS011;40971;44.702;11.030;2022-10-17T00:27:26;37.40;;;18.48;;
55076;SDS011;40971;44.702;11.030;2022-10-17T00:29:52;44.38;;;19.50;;
55076;SDS011;40971;44.702;11.030;2022-10-17T00:32:18;43.90;;;19.65;;
55076;SDS011;40971;44.702;11.030;2022-10-17T00:34:43;39.33;;;20.40;;
55076;SDS011;40971;44.702;11.030;2022-10-17T00:37:09;38.40;;;20.85;;
55076;SDS011;40971;44.702;11.030;2022-10-17T00:39:35;39.90;;;20.85;;
55076;SDS011;40971;44.702;11.030;2022-10-17T00:42:01;41.47;;;20.52;;
55076;SDS011;40971;44.702;11.030;2022-10-17T00:47:01;37.92;;;19.60;;
55076;SDS011;40971;44.702;11.030;2022-10-17T00:49:31;35.80;;;17.83;;
55076;SDS011;40971;44.702;11.030;2022-10-17T00:52:01;35.92;;;20.15;;
55076;SDS011;40971;44.702;11.030;2022-10-17T00:54:31;37.35;;;18.90;;
55076;SDS011;40971;44.702;11.030;2022-10-17T00:56:58;35.63;;;19.00;;
55076;SDS011;40971;44.702;11.030;2022-10-17T00:59:25;36.55;;;18.33;;
55076;SDS011;40971;44.702;11.030;2022-10-17T01:04:26;35.55;;;18.55;;
55076;SDS011;40971;44.702;11.030;2022-10-17T01:06:52;37.67;;;18.23;;
55076;SDS011;40971;44.702;11.030;2022-10-17T01:09:17;35.25;;;18.73;;
55076;SDS011;40971;44.702;11.030;2022-10-17T01:11:57;33.78;;;19.92;;
55076;SDS011;40971;44.702;11.030;2022-10-17T01:28:13;44.22;;;20.65;;
55076;SDS011;40971;44.702;11.030;2022-10-17T01:31:01;42.95;;;20.02;;
55076;SDS011;40971;44.702;11.030;2022-10-17T01:36:19;38.35;;;17.42;;
55076;SDS011;40971;44.702;11.030;2022-10-17T01:39:25;31.60;;;15.98;;
55076;SDS011;40971;44.702;11.030;2022-10-17T01:42:02;29.10;;;14.45;;
55076;SDS011;40971;44.702;11.030;2022-10-17T01:44:46;37.33;;;18.92;;
55076;SDS011;40971;44.702;11.030;2022-10-17T01:47:20;34.92;;;18.67;;
55076;SDS011;40971;44.702;11.030;2022-10-17T01:49:49;35.20;;;19.80;;
55076;SDS011;40971;44.702;11.030;2022-10-17T01:52:18;40.67;;;19.77;;
55076;SDS011;40971;44.702;11.030;2022-10-17T01:54:49;40.85;;;19.23;;
55076;SDS011;40971;44.702;11.030;2022-10-17T01:57:37;37.88;;;19.58;;
55076;SDS011;40971;44.702;11.030;2022-10-17T02:00:08;40.13;;;19.52;;
55076;SDS011;40971;44.702;11.030;2022-10-17T02:02:37;35.88;;;17.70;;
55076;SDS011;40971;44.702;11.030;2022-10-17T02:05:04;37.25;;;18.65;;
55076;SDS011;40971;44.702;11.030;2022-10-17T02:07:29;33.40;;;17.83;;
55076;SDS011;40971;44.702;11.030;2022-10-17T02:09:55;37.33;;;18.05;;
55076;SDS011;40971;44.702;11.030;2022-10-17T02:23:07;38.10;;;17.85;;
55076;SDS011;40971;44.702;11.030;2022-10-17T02:25:44;36.83;;;17.08;;
55076;SDS011;40971;44.702;11.030;2022-10-17T02:33:43;32.13;;;16.17;;
55076;SDS011;40971;44.702;11.030;2022-10-17T02:36:25;31.55;;;16.00;;
55076;SDS011;40971;44.702;11.030;2022-10-17T02:38:54;31.73;;;15.95;;
55076;SDS011;40971;44.702;11.030;2022-10-17T02:41:22;32.22;;;16.90;;
55076;SDS011;40971;44.702;11.030;2022-10-17T02:43:48;32.97;;;16.65;;
55076;SDS011;40971;44.702;11.030;2022-10-17T02:46:17;38.13;;;19.45;;
55076;SDS011;40971;44.702;11.030;2022-10-17T02:48:56;47.95;;;20.38;;
55076;SDS011;40971;44.702;11.030;2022-10-17T02:57:08;27.13;;;14.25;;
55076;SDS011;40971;44.702;11.030;2022-10-17T02:59:42;33.45;;;13.77;;
55076;SDS011;40971;44.702;11.030;2022-10-17T03:02:10;33.88;;;14.20;;
55076;SDS011;40971;44.702;11.030;2022-10-17T03:04:35;30.92;;;16.80;;
55076;SDS011;40971;44.702;11.030;2022-10-17T03:07:01;35.45;;;16.20;;
55076;SDS011;40971;44.702;11.030;2022-10-17T03:09:27;33.10;;;15.25;;
55076;SDS011;40971;44.702;11.030;2022-10-17T03:11:52;31.00;;;15.48;;
55076;SDS011;40971;44.702;11.030;2022-10-17T03:14:18;34.85;;;18.38;;
55076;SDS011;40971;44.702;11.030;2022-10-17T03:16:43;40.70;;;17.05;;
55076;SDS011;40971;44.702;11.030;2022-10-17T03:19:08;45.35;;;20.23;;
55076;SDS011;40971;44.702;11.030;2022-10-17T03:21:34;49.97;;;19.83;;
55076;SDS011;40971;44.702;11.030;2022-10-17T03:24:03;42.30;;;19.92;;
55076;SDS011;40971;44.702;11.030;2022-10-17T03:26:29;40.28;;;17.52;;
55076;SDS011;40971;44.702;11.030;2022-10-17T03:28:54;47.58;;;20.17;;
55076;SDS011;40971;44.702;11.030;2022-10-17T03:31:20;38.95;;;19.08;;
55076;SDS011;40971;44.702;11.030;2022-10-17T03:33:46;40.85;;;18.33;;
55076;SDS011;40971;44.702;11.030;2022-10-17T03:36:16;39.17;;;16.50;;
55076;SDS011;40971;44.702;11.030;2022-10-17T03:38:43;38.60;;;15.80;;
55076;SDS011;40971;44.702;11.030;2022-10-17T03:41:11;35.45;;;15.85;;
55076;SDS011;40971;44.702;11.030;2022-10-17T03:43:39;34.50;;;16.48;;
55076;SDS011;40971;44.702;11.030;2022-10-17T03:46:08;31.67;;;15.65;;
55076;SDS011;40971;44.702;11.030;2022-10-17T03:48:34;38.50;;;18.17;;
55076;SDS011;40971;44.702;11.030;2022-10-17T03:51:04;35.97;;;17.25;;
55076;SDS011;40971;44.702;11.030;2022-10-17T03:53:31;38.70;;;15.38;;
55076;SDS011;40971;44.702;11.030;2022-10-17T03:56:07;41.00;;;16.95;;
55076;SDS011;40971;44.702;11.030;2022-10-17T03:58:37;37.47;;;17.38;;
55076;SDS011;40971;44.702;11.030;2022-10-17T04:01:04;36.17;;;17.70;;
55076;SDS011;40971;44.702;11.030;2022-10-17T04:03:31;31.98;;;15.18;;
55076;SDS011;40971;44.702;11.030;2022-10-17T04:05:57;41.22;;;15.68;;
55076;SDS011;40971;44.702;11.030;2022-10-17T04:08:27;36.10;;;15.88;;
55076;SDS011;40971;44.702;11.030;2022-10-17T04:10:57;36.55;;;16.88;;
55076;SDS011;40971;44.702;11.030;2022-10-17T04:13:23;44.67;;;18.30;;
55076;SDS011;40971;44.702;11.030;2022-10-17T04:15:56;36.78;;;18.45;;
55076;SDS011;40971;44.702;11.030;2022-10-17T04:18:23;41.30;;;18.80;;
55076;SDS011;40971;44.702;11.030;2022-10-17T04:20:48;39.25;;;18.35;;
55076;SDS011;40971;44.702;11.030;2022-10-17T04:23:14;33.88;;;15.65;;
55076;SDS011;40971;44.702;11.030;2022-10-17T04:25:40;28.73;;;14.07;;
55076;SDS011;40971;44.702;11.030;2022-10-17T04:28:05;27.42;;;13.73;;
55076;SDS011;40971;44.702;11.030;2022-10-17T04:30:31;31.35;;;14.73;;
55076;SDS011;40971;44.702;11.030;2022-10-17T04:32:57;36.25;;;17.23;;
55076;SDS011;40971;44.702;11.030;2022-10-17T04:35:22;35.85;;;17.17;;
55076;SDS011;40971;44.702;11.030;2022-10-17T04:37:48;44.92;;;21.05;;
55076;SDS011;40971;44.702;11.030;2022-10-17T04:40:13;48.33;;;19.73;;
55076;SDS011;40971;44.702;11.030;2022-10-17T04:42:39;34.92;;;17.05;;
55076;SDS011;40971;44.702;11.030;2022-10-17T04:45:04;35.80;;;17.48;;
55076;SDS011;40971;44.702;11.030;2022-10-17T04:47:30;48.00;;;20.90;;
55076;SDS011;40971;44.702;11.030;2022-10-17T04:49:56;48.38;;;19.25;;
55076;SDS011;40971;44.702;11.030;2022-10-17T04:52:22;46.15;;;19.63;;
55076;SDS011;40971;44.702;11.030;2022-10-17T04:54:49;49.35;;;22.63;;
55076;SDS011;40971;44.702;11.030;2022-10-17T04:57:14;66.07;;;22.05;;
55076;SDS011;40971;44.702;11.030;2022-10-17T04:59:40;72.88;;;24.48;;
55076;SDS011;40971;44.702;11.030;2022-10-17T05:02:05;65.72;;;25.55;;
55076;SDS011;40971;44.702;11.030;2022-10-17T05:04:31;98.13;;;27.75;;
55076;SDS011;40971;44.702;11.030;2022-10-17T05:06:58;202.13;;;30.80;;
55076;SDS011;40971;44.702;11.030;2022-10-17T05:09:24;95.68;;;26.77;;
55076;SDS011;40971;44.702;11.030;2022-10-17T05:12:00;120.68;;;28.05;;
55076;SDS011;40971;44.702;11.030;2022-10-17T05:14:25;61.17;;;24.13;;
55076;SDS011;40971;44.702;11.030;2022-10-17T05:16:50;87.38;;;25.42;;
55076;SDS011;40971;44.702;11.030;2022-10-17T05:19:16;55.40;;;24.77;;
55076;SDS011;40971;44.702;11.030;2022-10-17T05:21:42;129.27;;;29.85;;
55076;SDS011;40971;44.702;11.030;2022-10-17T05:24:08;134.80;;;29.90;;
55076;SDS011;40971;44.702;11.030;2022-10-17T05:26:35;108.20;;;26.88;;
55076;SDS011;40971;44.702;11.030;2022-10-17T05:29:00;154.25;;;31.65;;
55076;SDS011;40971;44.702;11.030;2022-10-17T05:31:28;108.70;;;30.27;;
55076;SDS011;40971;44.702;11.030;2022-10-17T05:33:55;91.93;;;31.33;;
55076;SDS011;40971;44.702;11.030;2022-10-17T05:36:24;116.93;;;33.50;;
55076;SDS011;40971;44.702;11.030;2022-10-17T05:38:50;132.27;;;37.58;;
55076;SDS011;40971;44.702;11.030;2022-10-17T05:41:16;113.15;;;35.63;;
55076;SDS011;40971;44.702;11.030;2022-10-17T05:43:48;98.28;;;33.75;;
55076;SDS011;40971;44.702;11.030;2022-10-17T05:46:14;94.05;;;31.83;;
55076;SDS011;40971;44.702;11.030;2022-10-17T05:48:40;120.32;;;34.35;;
55076;SDS011;40971;44.702;11.030;2022-10-17T05:51:10;143.05;;;39.85;;
55076;SDS011;40971;44.702;11.030;2022-10-17T05:53:41;143.35;;;38.95;;
55076;SDS011;40971;44.702;11.030;2022-10-17T05:56:11;126.68;;;37.42;;
55076;SDS011;40971;44.702;11.030;2022-10-17T05:58:39;133.27;;;36.53;;
55076;SDS011;40971;44.702;11.030;2022-10-17T06:01:06;130.40;;;41.47;;
55076;SDS011;40971;44.702;11.030;2022-10-17T06:03:32;150.57;;;39.90;;
55076;SDS011;40971;44.702;11.030;2022-10-17T06:06:08;186.68;;;41.45;;
55076;SDS011;40971;44.702;11.030;2022-10-17T06:08:35;182.80;;;43.33;;
55076;SDS011;40971;44.702;11.030;2022-10-17T06:11:01;266.95;;;47.30;;
55076;SDS011;40971;44.702;11.030;2022-10-17T06:13:27;155.85;;;39.28;;
55076;SDS011;40971;44.702;11.030;2022-10-17T06:15:53;354.45;;;43.33;;
55076;SDS011;40971;44.702;11.030;2022-10-17T06:18:19;184.68;;;42.63;;
55076;SDS011;40971;44.702;11.030;2022-10-17T06:20:44;232.35;;;42.20;;
55076;SDS011;40971;44.702;11.030;2022-10-17T06:23:09;280.45;;;44.15;;
55076;SDS011;40971;44.702;11.030;2022-10-17T06:25:35;291.83;;;44.05;;
55076;SDS011;40971;44.702;11.030;2022-10-17T06:28:01;282.67;;;45.95;;
55076;SDS011;40971;44.702;11.030;2022-10-17T06:30:26;160.98;;;43.03;;
55076;SDS011;40971;44.702;11.030;2022-10-17T06:32:52;169.88;;;45.03;;
55076;SDS011;40971;44.702;11.030;2022-10-17T06:35:18;147.98;;;43.33;;
55076;SDS011;40971;44.702;11.030;2022-10-17T06:37:44;171.98;;;44.65;;
55076;SDS011;40971;44.702;11.030;2022-10-17T06:40:09;184.85;;;44.58;;
55076;SDS011;40971;44.702;11.030;2022-10-17T06:42:39;165.70;;;44.53;;
55076;SDS011;40971;44.702;11.030;2022-10-17T06:45:06;185.02;;;43.05;;
55076;SDS011;40971;44.702;11.030;2022-10-17T06:47:33;105.70;;;39.08;;
55076;SDS011;40971;44.702;11.030;2022-10-17T06:49:59;111.60;;;38.13;;
55076;SDS011;40971;44.702;11.030;2022-10-17T06:52:24;103.32;;;39.45;;
55076;SDS011;40971;44.702;11.030;2022-10-17T06:54:50;119.68;;;39.13;;
55076;SDS011;40971;44.702;11.030;2022-10-17T06:57:18;113.90;;;39.85;;
55076;SDS011;40971;44.702;11.030;2022-10-17T06:59:43;133.15;;;41.97;;
55076;SDS011;40971;44.702;11.030;2022-10-17T07:02:12;112.75;;;38.85;;
55076;SDS011;40971;44.702;11.030;2022-10-17T07:04:37;110.07;;;38.03;;
55076;SDS011;40971;44.702;11.030;2022-10-17T07:07:03;98.00;;;38.78;;
55076;SDS011;40971;44.702;11.030;2022-10-17T07:09:29;105.07;;;38.20;;
55076;SDS011;40971;44.702;11.030;2022-10-17T07:11:55;111.70;;;39.00;;
55076;SDS011;40971;44.702;11.030;2022-10-17T07:14:20;108.72;;;36.90;;
55076;SDS011;40971;44.702;11.030;2022-10-17T07:16:46;99.60;;;38.53;;
55076;SDS011;40971;44.702;11.030;2022-10-17T07:19:11;142.65;;;41.60;;
55076;SDS011;40971;44.702;11.030;2022-10-17T07:21:37;100.32;;;39.85;;
55076;SDS011;40971;44.702;11.030;2022-10-17T07:24:02;105.25;;;39.72;;
55076;SDS011;40971;44.702;11.030;2022-10-17T07:26:28;105.72;;;38.40;;
55076;SDS011;40971;44.702;11.030;2022-10-17T07:28:55;110.60;;;38.83;;
55076;SDS011;40971;44.702;11.030;2022-10-17T07:31:21;106.18;;;37.95;;
55076;SDS011;40971;44.702;11.030;2022-10-17T07:33:47;95.45;;;37.10;;
55076;SDS011;40971;44.702;11.030;2022-10-17T07:36:13;98.85;;;38.97;;
55076;SDS011;40971;44.702;11.030;2022-10-17T07:38:39;100.85;;;35.95;;
55076;SDS011;40971;44.702;11.030;2022-10-17T07:41:06;103.80;;;38.13;;
55076;SDS011;40971;44.702;11.030;2022-10-17T07:43:40;99.13;;;36.83;;
55076;SDS011;40971;44.702;11.030;2022-10-17T07:46:07;90.63;;;36.20;;
55076;SDS011;40971;44.702;11.030;2022-10-17T07:48:33;99.53;;;38.35;;
55076;SDS011;40971;44.702;11.030;2022-10-17T07:51:02;88.45;;;36.75;;
55076;SDS011;40971;44.702;11.030;2022-10-17T07:53:28;98.32;;;37.45;;
55076;SDS011;40971;44.702;11.030;2022-10-17T07:55:54;92.05;;;37.15;;
55076;SDS011;40971;44.702;11.030;2022-10-17T07:58:24;79.30;;;35.55;;
55076;SDS011;40971;44.702;11.030;2022-10-17T08:00:50;80.57;;;36.13;;
55076;SDS011;40971;44.702;11.030;2022-10-17T08:03:15;80.03;;;36.40;;
55076;SDS011;40971;44.702;11.030;2022-10-17T08:05:41;80.70;;;35.72;;
55076;SDS011;40971;44.702;11.030;2022-10-17T08:08:06;80.72;;;33.30;;
55076;SDS011;40971;44.702;11.030;2022-10-17T08:10:32;80.38;;;33.97;;
55076;SDS011;40971;44.702;11.030;2022-10-17T08:12:57;69.82;;;32.83;;
55076;SDS011;40971;44.702;11.030;2022-10-17T08:15:23;65.72;;;32.25;;
55076;SDS011;40971;44.702;11.030;2022-10-17T08:17:50;77.35;;;33.00;;
55076;SDS011;40971;44.702;11.030;2022-10-17T08:20:15;70.18;;;32.67;;
55076;SDS011;40971;44.702;11.030;2022-10-17T08:22:41;70.25;;;33.30;;
55076;SDS011;40971;44.702;11.030;2022-10-17T08:25:06;66.32;;;32.67;;
55076;SDS011;40971;44.702;11.030;2022-10-17T08:27:33;62.83;;;33.20;;
55076;SDS011;40971;44.702;11.030;2022-10-17T08:29:58;66.53;;;31.02;;
55076;SDS011;40971;44.702;11.030;2022-10-17T08:32:24;61.83;;;32.15;;
55076;SDS011;40971;44.702;11.030;2022-10-17T08:34:51;63.17;;;32.15;;
55076;SDS011;40971;44.702;11.030;2022-10-17T08:37:18;64.68;;;31.88;;
55076;SDS011;40971;44.702;11.030;2022-10-17T08:39:43;62.55;;;30.88;;
55076;SDS011;40971;44.702;11.030;2022-10-17T08:44:58;59.42;;;29.63;;
55076;SDS011;40971;44.702;11.030;2022-10-17T08:47:27;69.13;;;30.98;;
55076;SDS011;40971;44.702;11.030;2022-10-17T08:49:58;60.00;;;29.88;;
55076;SDS011;40971;44.702;11.030;2022-10-17T08:52:48;65.63;;;29.98;;
55076;SDS011;40971;44.702;11.030;2022-10-17T08:55:31;59.97;;;29.80;;
55076;SDS011;40971;44.702;11.030;2022-10-17T08:58:01;56.75;;;28.52;;
55076;SDS011;40971;44.702;11.030;2022-10-17T09:00:27;61.45;;;29.80;;
55076;SDS011;40971;44.702;11.030;2022-10-17T09:03:08;52.83;;;28.90;;
55076;SDS011;40971;44.702;11.030;2022-10-17T09:19:37;65.60;;;26.23;;
55076;SDS011;40971;44.702;11.030;2022-10-17T09:22:11;47.33;;;25.70;;
55076;SDS011;40971;44.702;11.030;2022-10-17T09:27:55;48.72;;;26.08;;
55076;SDS011;40971;44.702;11.030;2022-10-17T09:30:19;48.70;;;24.08;;
55076;SDS011;40971;44.702;11.030;2022-10-17T09:32:49;47.97;;;24.90;;
55076;SDS011;40971;44.702;11.030;2022-10-17T09:35:15;45.17;;;25.48;;
55076;SDS011;40971;44.702;11.030;2022-10-17T09:37:41;49.47;;;25.77;;
55076;SDS011;40971;44.702;11.030;2022-10-17T09:40:11;47.03;;;25.88;;
55076;SDS011;40971;44.702;11.030;2022-10-17T09:42:51;46.03;;;26.08;;
55076;SDS011;40971;44.702;11.030;2022-10-17T09:50:39;48.95;;;28.00;;
55076;SDS011;40971;44.702;11.030;2022-10-17T09:53:11;52.38;;;27.65;;
55076;SDS011;40971;44.702;11.030;2022-10-17T09:55:44;49.78;;;26.33;;
55076;SDS011;40971;44.702;11.030;2022-10-17T09:58:13;52.53;;;27.92;;
55076;SDS011;40971;44.702;11.030;2022-10-17T10:00:39;56.72;;;29.23;;
55076;SDS011;40971;44.702;11.030;2022-10-17T10:03:13;52.75;;;29.80;;
55076;SDS011;40971;44.702;11.030;2022-10-17T10:06:04;56.33;;;28.35;;
55076;SDS011;40971;44.702;11.030;2022-10-17T10:08:46;56.72;;;28.33;;
55076;SDS011;40971;44.702;11.030;2022-10-17T10:11:22;55.75;;;30.17;;
55076;SDS011;40971;44.702;11.030;2022-10-17T10:13:49;57.65;;;29.55;;
55076;SDS011;40971;44.702;11.030;2022-10-17T10:16:19;53.63;;;28.00;;
55076;SDS011;40971;44.702;11.030;2022-10-17T10:19:28;48.42;;;27.83;;
55076;SDS011;40971;44.702;11.030;2022-10-17T10:21:59;53.45;;;28.15;;
55076;SDS011;40971;44.702;11.030;2022-10-17T10:24:25;47.25;;;27.20;;
55076;SDS011;40971;44.702;11.030;2022-10-17T10:26:51;48.63;;;25.90;;
55076;SDS011;40971;44.702;11.030;2022-10-17T10:29:36;50.88;;;25.88;;
55076;SDS011;40971;44.702;11.030;2022-10-17T10:37:17;56.50;;;28.50;;
55076;SDS011;40971;44.702;11.030;2022-10-17T10:39:47;51.30;;;27.33;;
55076;SDS011;40971;44.702;11.030;2022-10-17T10:42:33;54.40;;;26.60;;
55076;SDS011;40971;44.702;11.030;2022-10-17T10:45:03;51.20;;;26.83;;
55076;SDS011;40971;44.702;11.030;2022-10-17T10:47:55;53.78;;;28.40;;
55076;SDS011;40971;44.702;11.030;2022-10-17T10:50:39;55.33;;;28.17;;
55076;SDS011;40971;44.702;11.030;2022-10-17T10:53:09;53.40;;;27.80;;
55076;SDS011;40971;44.702;11.030;2022-10-17T11:01:12;46.78;;;26.27;;
55076;SDS011;40971;44.702;11.030;2022-10-17T11:06:20;49.13;;;26.45;;
55076;SDS011;40971;44.702;11.030;2022-10-17T11:11:28;48.72;;;25.77;;
55076;SDS011;40971;44.702;11.030;2022-10-17T11:14:01;46.28;;;25.80;;
55076;SDS011;40971;44.702;11.030;2022-10-17T11:24:38;53.53;;;26.77;;
55076;SDS011;40971;44.702;11.030;2022-10-17T11:27:10;46.42;;;25.77;;
55076;SDS011;40971;44.702;11.030;2022-10-17T11:29:36;45.15;;;24.88;;
55076;SDS011;40971;44.702;11.030;2022-10-17T11:32:10;49.85;;;25.70;;
55076;SDS011;40971;44.702;11.030;2022-10-17T11:34:46;48.88;;;27.38;;
55076;SDS011;40971;44.702;11.030;2022-10-17T11:37:21;48.92;;;24.50;;
55076;SDS011;40971;44.702;11.030;2022-10-17T11:42:22;41.15;;;23.05;;
55076;SDS011;40971;44.702;11.030;2022-10-17T11:45:01;47.92;;;23.98;;
55076;SDS011;40971;44.702;11.030;2022-10-17T11:47:35;49.53;;;23.58;;
55076;SDS011;40971;44.702;11.030;2022-10-17T11:50:23;46.13;;;22.65;;
55076;SDS011;40971;44.702;11.030;2022-10-17T11:52:55;40.33;;;20.77;;
55076;SDS011;40971;44.702;11.030;2022-10-17T11:55:26;44.55;;;21.48;;
55076;SDS011;40971;44.702;11.030;2022-10-17T12:05:51;42.55;;;21.20;;
55076;SDS011;40971;44.702;11.030;2022-10-17T12:08:32;50.65;;;23.23;;
55076;SDS011;40971;44.702;11.030;2022-10-17T12:18:43;41.63;;;23.88;;
55076;SDS011;40971;44.702;11.030;2022-10-17T12:21:15;49.33;;;23.58;;
55076;SDS011;40971;44.702;11.030;2022-10-17T12:23:40;48.47;;;23.02;;
55076;SDS011;40971;44.702;11.030;2022-10-17T12:26:23;40.65;;;20.58;;
55076;SDS011;40971;44.702;11.030;2022-10-17T12:28:53;41.45;;;21.55;;
55076;SDS011;40971;44.702;11.030;2022-10-17T12:31:21;44.47;;;22.65;;
55076;SDS011;40971;44.702;11.030;2022-10-17T12:33:55;41.33;;;20.48;;
55076;SDS011;40971;44.702;11.030;2022-10-17T12:39:39;39.10;;;20.63;;
55076;SDS011;40971;44.702;11.030;2022-10-17T13:00:20;36.15;;;17.90;;
55076;SDS011;40971;44.702;11.030;2022-10-17T13:03:00;40.92;;;18.27;;
55076;SDS011;40971;44.702;11.030;2022-10-17T13:05:30;32.95;;;16.35;;
55076;SDS011;40971;44.702;11.030;2022-10-17T13:07:59;29.48;;;15.18;;
55076;SDS011;40971;44.702;11.030;2022-10-17T13:10:28;33.60;;;17.20;;
55076;SDS011;40971;44.702;11.030;2022-10-17T13:13:15;34.65;;;17.45;;
55076;SDS011;40971;44.702;11.030;2022-10-17T13:16:01;29.67;;;15.75;;
55076;SDS011;40971;44.702;11.030;2022-10-17T13:18:27;36.38;;;15.90;;
55076;SDS011;40971;44.702;11.030;2022-10-17T13:20:55;32.95;;;13.85;;
55076;SDS011;40971;44.702;11.030;2022-10-17T13:23:23;33.83;;;15.02;;
55076;SDS011;40971;44.702;11.030;2022-10-17T13:28:40;35.90;;;13.85;;
55076;SDS011;40971;44.702;11.030;2022-10-17T13:31:12;28.42;;;12.95;;
55076;SDS011;40971;44.702;11.030;2022-10-17T13:36:20;25.17;;;12.10;;
55076;SDS011;40971;44.702;11.030;2022-10-17T13:38:46;26.05;;;13.38;;
55076;SDS011;40971;44.702;11.030;2022-10-17T13:41:12;25.75;;;12.07;;
55076;SDS011;40971;44.702;11.030;2022-10-17T13:43:40;27.02;;;10.98;;
55076;SDS011;40971;44.702;11.030;2022-10-17T13:46:06;21.98;;;11.40;;
55076;SDS011;40971;44.702;11.030;2022-10-17T13:48:34;23.60;;;12.10;;
55076;SDS011;40971;44.702;11.030;2022-10-17T13:51:02;22.75;;;12.35;;
55076;SDS011;40971;44.702;11.030;2022-10-17T13:53:34;22.20;;;11.45;;
55076;SDS011;40971;44.702;11.030;2022-10-17T13:58:43;23.83;;;11.98;;
55076;SDS011;40971;44.702;11.030;2022-10-17T14:01:11;26.92;;;12.82;;
55076;SDS011;40971;44.702;11.030;2022-10-17T14:03:39;22.52;;;11.85;;
55076;SDS011;40971;44.702;11.030;2022-10-17T14:06:16;25.77;;;11.50;;
55076;SDS011;40971;44.702;11.030;2022-10-17T14:08:58;20.00;;;10.43;;
55076;SDS011;40971;44.702;11.030;2022-10-17T14:13:58;20.38;;;10.32;;
55076;SDS011;40971;44.702;11.030;2022-10-17T14:16:25;33.47;;;11.35;;
55076;SDS011;40971;44.702;11.030;2022-10-17T14:18:57;21.98;;;10.52;;
55076;SDS011;40971;44.702;11.030;2022-10-17T14:21:25;21.95;;;10.85;;
55076;SDS011;40971;44.702;11.030;2022-10-17T14:24:38;24.40;;;10.38;;
55076;SDS011;40971;44.702;11.030;2022-10-17T14:26:48;22.27;;;9.98;;
55076;SDS011;40971;44.702;11.030;2022-10-17T14:32:04;26.88;;;12.05;;
55076;SDS011;40971;44.702;11.030;2022-10-17T14:34:36;19.33;;;9.93;;
55076;SDS011;40971;44.702;11.030;2022-10-17T14:37:08;23.42;;;11.48;;
55076;SDS011;40971;44.702;11.030;2022-10-17T14:39:35;29.05;;;12.27;;
55076;SDS011;40971;44.702;11.030;2022-10-17T14:42:01;23.77;;;12.18;;
55076;SDS011;40971;44.702;11.030;2022-10-17T14:44:33;27.30;;;12.10;;
55076;SDS011;40971;44.702;11.030;2022-10-17T14:47:04;24.45;;;12.98;;
55076;SDS011;40971;44.702;11.030;2022-10-17T14:52:35;21.70;;;10.68;;
55076;SDS011;40971;44.702;11.030;2022-10-17T14:54:54;23.08;;;11.77;;
55076;SDS011;40971;44.702;11.030;2022-10-17T14:57:43;27.63;;;11.98;;
55076;SDS011;40971;44.702;11.030;2022-10-17T15:00:09;23.98;;;11.50;;
55076;SDS011;40971;44.702;11.030;2022-10-17T15:02:38;22.70;;;11.85;;
55076;SDS011;40971;44.702;11.030;2022-10-17T15:05:04;20.63;;;10.77;;
55076;SDS011;40971;44.702;11.030;2022-10-17T15:07:29;21.98;;;10.93;;
55076;SDS011;40971;44.702;11.030;2022-10-17T15:09:55;21.33;;;11.75;;
55076;SDS011;40971;44.702;11.030;2022-10-17T15:12:22;23.63;;;12.05;;
55076;SDS011;40971;44.702;11.030;2022-10-17T15:14:49;31.52;;;11.65;;
55076;SDS011;40971;44.702;11.030;2022-10-17T15:17:16;35.80;;;11.13;;
55076;SDS011;40971;44.702;11.030;2022-10-17T15:19:44;20.58;;;10.65;;
55076;SDS011;40971;44.702;11.030;2022-10-17T15:22:11;23.98;;;12.45;;
55076;SDS011;40971;44.702;11.030;2022-10-17T15:24:36;27.58;;;11.93;;
55076;SDS011;40971;44.702;11.030;2022-10-17T15:27:02;27.05;;;11.93;;
55076;SDS011;40971;44.702;11.030;2022-10-17T15:29:31;25.58;;;11.25;;
55076;SDS011;40971;44.702;11.030;2022-10-17T15:31:56;28.70;;;12.05;;
55076;SDS011;40971;44.702;11.030;2022-10-17T15:34:23;25.48;;;11.43;;
55076;SDS011;40971;44.702;11.030;2022-10-17T15:36:50;21.60;;;11.32;;
55076;SDS011;40971;44.702;11.030;2022-10-17T15:39:18;21.65;;;10.23;;
55076;SDS011;40971;44.702;11.030;2022-10-17T15:41:48;21.80;;;10.80;;
55076;SDS011;40971;44.702;11.030;2022-10-17T15:44:18;29.00;;;10.50;;
55076;SDS011;40971;44.702;11.030;2022-10-17T15:46:45;23.88;;;11.32;;
55076;SDS011;40971;44.702;11.030;2022-10-17T15:49:12;28.13;;;12.45;;
55076;SDS011;40971;44.702;11.030;2022-10-17T15:51:41;24.00;;;13.15;;
55076;SDS011;40971;44.702;11.030;2022-10-17T15:54:06;26.77;;;12.88;;
55076;SDS011;40971;44.702;11.030;2022-10-17T15:56:39;32.30;;;12.77;;
55076;SDS011;40971;44.702;11.030;2022-10-17T15:59:15;23.92;;;12.00;;
55076;SDS011;40971;44.702;11.030;2022-10-17T16:01:44;28.85;;;13.88;;
55076;SDS011;40971;44.702;11.030;2022-10-17T16:04:10;26.40;;;13.73;;
55076;SDS011;40971;44.702;11.030;2022-10-17T16:06:38;25.10;;;12.50;;
55076;SDS011;40971;44.702;11.030;2022-10-17T16:09:04;26.33;;;12.63;;
55076;SDS011;40971;44.702;11.030;2022-10-17T16:11:37;30.75;;;12.75;;
55076;SDS011;40971;44.702;11.030;2022-10-17T16:14:05;22.13;;;11.40;;
55076;SDS011;40971;44.702;11.030;2022-10-17T16:16:34;23.58;;;13.02;;
55076;SDS011;40971;44.702;11.030;2022-10-17T16:18:59;24.63;;;12.68;;
55076;SDS011;40971;44.702;11.030;2022-10-17T16:21:27;28.63;;;13.25;;
55076;SDS011;40971;44.702;11.030;2022-10-17T16:23:54;27.67;;;12.25;;
55076;SDS011;40971;44.702;11.030;2022-10-17T16:26:21;26.30;;;13.52;;
55076;SDS011;40971;44.702;11.030;2022-10-17T16:28:46;25.00;;;12.75;;
55076;SDS011;40971;44.702;11.030;2022-10-17T16:31:25;28.88;;;12.93;;
55076;SDS011;40971;44.702;11.030;2022-10-17T16:33:54;27.13;;;13.88;;
55076;SDS011;40971;44.702;11.030;2022-10-17T16:36:20;25.85;;;14.05;;
55076;SDS011;40971;44.702;11.030;2022-10-17T16:38:47;27.60;;;14.95;;
55076;SDS011;40971;44.702;11.030;2022-10-17T16:41:20;28.10;;;15.00;;
55076;SDS011;40971;44.702;11.030;2022-10-17T16:43:48;25.70;;;13.95;;
55076;SDS011;40971;44.702;11.030;2022-10-17T16:46:14;38.13;;;15.05;;